WB5HZM-3 Weather Reports


Display with metric or nautical units.
time (UTC)temp
F
wind
direction
speed
MPH
gust
MPH
rain 1hr
in
rain 24hr
in
rain mn
in
humidity
%
barometer
mb
20210927143331 74 106 5.0 10.0 0.00 0.00 0.00 80 1018.1
20210927142326 73 165 3.0 5.0 0.00 0.00 0.00 81 1018.0
20210927141321 73 186 4.0 8.0 0.00 0.00 0.00 81 1018.0
20210927140336 73 114 2.0 4.0 0.00 0.00 0.00 82 1018.0
20210927135330 73 190 3.0 7.0 0.00 0.00 0.00 84 1017.8
20210927134324 72 123 3.0 7.0 0.00 0.00 0.00 85 1017.7
20210927133337 71 161 1.0 5.0 0.00 0.00 0.00 87 1017.8
20210927132331 71 161 0.0 2.0 0.00 0.00 0.00 89 1017.8
20210927131331 70 172 0.0 2.0 0.00 0.00 0.00 90 1017.6
20210927130326 69 175 0.0 2.0 0.00 0.00 0.00 89 1017.6
20210927125320 69 171 2.0 3.0 0.00 0.00 0.00 90 1017.6
20210927124319 69 171 2.0 3.0 0.00 0.00 0.00 89 1017.4
20210927123332 69 169 1.0 3.0 0.00 0.00 0.00 89 1017.4
20210927122325 69 55 1.0 2.0 0.00 0.00 0.00 89 1017.3
20210927121320 69 186 1.0 2.0 0.00 0.00 0.00 89 1017.3
20210927120335 68 186 1.0 3.0 0.00 0.00 0.00 89 1017.2
20210927115326 68 186 1.0 2.0 0.00 0.00 0.00 89 1017.2
20210927114321 69 186 1.0 2.0 0.00 0.00 0.00 89 1017.2
20210927113319 69 186 1.0 3.0 0.00 0.00 0.00 89 1017.2
20210927112332 69 189 1.0 2.0 0.00 0.00 0.00 89 1017.2
20210927111326 69 189 0.0 2.0 0.00 0.00 0.00 88 1017.2
20210927110324 69 189 1.0 2.0 0.00 0.00 0.00 88 1017.1
20210927105337 69 189 2.0 3.0 0.00 0.00 0.00 88 1017.0
20210927104332 69 189 2.0 4.0 0.00 0.00 0.00 88 1017.1
20210927103327 69 188 2.0 4.0 0.00 0.00 0.00 88 1017.2
20210927102325 69 192 2.0 4.0 0.00 0.00 0.00 88 1017.3
20210927101321 69 169 2.0 5.0 0.00 0.00 0.00 87 1017.2
20210927100336 69 167 2.0 3.0 0.00 0.00 0.00 87 1017.1
20210927095335 69 167 1.0 4.0 0.00 0.00 0.00 86 1017.3
20210927094330 69 165 2.0 6.0 0.00 0.00 0.00 86 1017.3
20210927093324 70 183 2.0 4.0 0.00 0.00 0.00 86 1017.4
20210927092335 70 173 3.0 5.0 0.00 0.00 0.00 86 1017.4
20210927091334 70 173 1.0 3.0 0.00 0.00 0.00 86 1017.6
20210927090327 70 174 1.0 3.0 0.00 0.00 0.00 85 1017.7
20210927085320 70 127 2.0 3.0 0.00 0.00 0.00 85 1017.7
20210927084338 70 101 2.0 5.0 0.00 0.00 0.00 85 1017.7
20210927083331 71 164 1.0 3.0 0.00 0.00 0.00 84 1017.8
20210927082325 71 136 2.0 5.0 0.00 0.00 0.00 84 1017.8
20210927081321 71 163 1.0 6.0 0.00 0.00 0.00 84 1017.9
20210927080320 71 150 0.0 5.0 0.00 0.00 0.00 84 1017.9
20210927075334 71 162 2.0 5.0 0.00 0.00 0.00 84 1017.9
20210927074328 71 201 2.0 5.0 0.00 0.00 0.00 84 1017.9
20210927073326 71 167 3.0 7.0 0.00 0.00 0.00 84 1018.0
20210927072337 71 169 2.0 7.0 0.00 0.00 0.00 84 1017.9
20210927071330 71 169 0.0 5.0 0.00 0.00 0.00 84 1018.0
20210927070325 71 181 3.0 7.0 0.00 0.00 0.00 85 1018.0
20210927065324 71 111 1.0 6.0 0.00 0.00 0.00 85 1018.0
20210927064318 71 207 1.0 5.0 0.00 0.00 0.00 85 1018.0
20210927063332 71 204 1.0 4.0 0.00 0.00 0.00 85 1018.0
20210927062330 71 200 2.0 5.0 0.00 0.00 0.00 85 1018.0
20210927061324 71 70 1.0 2.0 0.00 0.00 0.00 85 1018.0
20210927060320 71 71 2.0 3.0 0.00 0.00 0.00 85 1018.1
20210927055318 71 167 3.0 5.0 0.00 0.00 0.00 85 1018.0
20210927054332 72 197 2.0 4.0 0.00 0.00 0.00 84 1018.0
20210927053327 72 149 3.0 5.0 0.00 0.00 0.00 84 1018.0
20210927052335 72 191 2.0 7.0 0.00 0.00 0.00 83 1018.0
20210927051333 72 174 2.0 7.0 0.00 0.00 0.00 82 1018.1
20210927050326 72 202 1.0 4.0 0.00 0.00 0.00 82 1018.1
20210927045319 72 188 1.0 5.0 0.00 0.00 0.00 82 1018.1
20210927044333 73 194 2.0 6.0 0.00 0.00 0.00 81 1018.1
20210927043331 73 142 2.0 6.0 0.00 0.00 0.00 81 1018.2
20210927042326 73 160 2.0 6.0 0.00 0.00 0.00 81 1018.1
20210927041319 73 142 2.0 6.0 0.00 0.00 0.00 80 1018.2
20210927040335 73 184 3.0 7.0 0.00 0.00 0.00 79 1018.2
20210927035331 74 242 3.0 7.0 0.00 0.00 0.00 79 1018.1
20210927034326 74 156 4.0 7.0 0.00 0.00 0.00 78 1018.1
20210927033326 74 175 4.0 9.0 0.00 0.00 0.00 78 1018.0
20210927032321 74 192 3.0 6.0 0.00 0.00 0.00 76 1018.0
20210927031335 74 212 3.0 11.0 0.00 0.00 0.00 76 1017.9
20210927030329 74 160 3.0 8.0 0.00 0.00 0.00 75 1017.9
20210927025327 75 162 3.0 8.0 0.00 0.00 0.00 74 1017.9
20210927024322 75 150 3.0 7.0 0.00 0.00 0.00 73 1017.9
20210927023318 75 187 3.0 6.0 0.00 0.00 0.00 72 1017.9
20210927022337 75 170 2.0 6.0 0.00 0.00 0.00 71 1017.9
20210927021329 75 167 2.0 5.0 0.00 0.00 0.00 70 1017.8
20210927020324 76 224 1.0 3.0 0.00 0.00 0.00 69 1017.7
20210927015337 76 189 3.0 5.0 0.00 0.00 0.00 68 1017.5
20210927014334 76 129 1.0 5.0 0.00 0.00 0.00 67 1017.6
20210927013325 77 207 3.0 9.0 0.00 0.00 0.00 66 1017.4
20210927012336 77 156 2.0 4.0 0.00 0.00 0.00 65 1017.4
20210927011336 77 184 1.0 2.0 0.00 0.00 0.00 63 1017.4
20210927010331 78 175 2.0 3.0 0.00 0.00 0.00 62 1017.2
20210927005325 78 175 1.0 4.0 0.00 0.00 0.00 61 1017.1
20210927004320 79 174 1.0 3.0 0.00 0.00 0.00 59 1017.2
20210927003318 79 166 2.0 3.0 0.00 0.00 0.00 57 1017.1
20210927002333 80 164 1.0 4.0 0.00 0.00 0.00 55 1017.1
20210927001327 81 178 1.0 3.0 0.00 0.00 0.00 54 1017.0
20210927000324 81 190 2.0 4.0 0.00 0.00 0.00 53 1017.1
20210926235337 82 182 3.0 7.0 0.00 0.00 0.00 53 1017.0
20210926234331 82 169 2.0 8.0 0.00 0.00 0.00 51 1017.0
20210926233322 83 121 2.0 7.0 0.00 0.00 0.00 49 1016.9
20210926232320 83 163 3.0 9.0 0.00 0.00 0.00 48 1017.0
20210926231335 83 94 3.0 6.0 0.00 0.00 0.00 47 1017.0
20210926230329 84 194 2.0 8.0 0.00 0.00 0.00 46 1017.0
20210926225324 84 183 4.0 10.0 0.00 0.00 0.00 44 1017.0
20210926224337 84 153 2.0 7.0 0.00 0.00 0.00 46 1017.0
20210926223328 84 97 3.0 8.0 0.00 0.00 0.00 45 1017.0
20210926222324 84 146 2.0 8.0 0.00 0.00 0.00 43 1017.0
20210926221324 85 109 3.0 8.0 0.00 0.00 0.00 41 1017.1
20210926220319 85 122 4.0 11.0 0.00 0.00 0.00 41 1017.1
20210926215330 85 107 3.0 8.0 0.00 0.00 0.00 42 1017.0
20210926214329 85 97 3.0 9.0 0.00 0.00 0.00 39 1017.1
20210926213323 84 161 2.0 7.0 0.00 0.00 0.00 42 1017.1
20210926212337 84 140 5.0 9.0 0.00 0.00 0.00 42 1017.2
20210926211331 84 126 4.0 12.0 0.00 0.00 0.00 43 1017.2
20210926210327 84 103 6.0 9.0 0.00 0.00 0.00 43 1017.3
20210926205320 84 90 5.0 10.0 0.00 0.00 0.00 41 1017.3
20210926204334 84 117 6.0 10.0 0.00 0.00 0.00 39 1017.3
20210926203333 84 101 2.0 8.0 0.00 0.00 0.00 41 1017.3
20210926202328 84 99 5.0 10.0 0.00 0.00 0.00 38 1017.5
20210926201323 83 114 5.0 9.0 0.00 0.00 0.00 41 1017.6
20210926200322 84 93 4.0 7.0 0.00 0.00 0.00 43 1017.7
20210926195336 83 192 2.0 10.0 0.00 0.00 0.00 44 1017.9
20210926194331 82 128 3.0 10.0 0.00 0.00 0.00 44 1017.9
20210926193325 82 98 5.0 8.0 0.00 0.00 0.00 45 1018.1
20210926192322 81 99 6.0 8.0 0.00 0.00 0.00 46 1018.3
20210926191336 81 78 5.0 8.0 0.00 0.00 0.00 49 1018.5
20210926190329 80 96 2.0 4.0 0.00 0.00 0.00 54 1018.6
20210926185323 80 96 2.0 4.0 0.00 0.00 0.00 55 1018.8
20210926184334 79 96 2.0 4.0 0.00 0.00 0.00 55 1019.0
20210926183329 79 89 4.0 6.0 0.00 0.00 0.00 55 1019.2
20210926182324 79 86 3.0 7.0 0.00 0.00 0.00 56 1019.4
20210926181322 79 80 3.0 7.0 0.00 0.00 0.00 58 1019.6
20210926180336 78 88 4.0 6.0 0.00 0.00 0.00 60 1019.8
20210926175326 78 91 3.0 6.0 0.00 0.00 0.00 62 1020.1
20210926174325 77 90 4.0 6.0 0.00 0.00 0.00 63 1020.2
20210926173335 77 64 2.0 4.0 0.00 0.00 0.00 63 1020.3
20210926172330 76 64 3.0 4.0 0.00 0.00 0.00 65 1020.4
20210926171319 76 78 5.0 7.0 0.00 0.00 0.00 61 1020.5
20210926170318 76 63 4.0 5.0 0.00 0.00 0.00 66 1020.6
20210926165332 76 5 1.0 3.0 0.00 0.00 0.00 70 1020.8
20210926164327 75 5 1.0 2.0 0.00 0.00 0.00 72 1020.8